SBBH

Details ICAO SBBH (PLU)
Name Pampulha
Region Brazil
Timezone America/Sao_Paulo (UTC-2.0)
Plans Departing 95
Arriving 98
Stats Elevation 2,589 ft / 789 m (AMSL)
Location -19.851179° -43.950626°
Runways 1
Magnetic Variation 22.799° W
Sunrise 2017-12-16 08:13:08 UTC / 2017-12-16 06:13:08 Local
Sunset 2017-12-16 21:32:37 UTC / 2017-12-16 19:32:37 Local
Advertisement - Login to hide

Runways

ID Width Length Bearing (true) Bearing (mag) Surface Threshold Offset Overrun Length
13 148 ft / 45 m 8,214 ft / 2,504 m 110.63° 133.43° Asphalt 0 ft / 0 m 200 ft / 61 m
31 148 ft / 45 m 8,214 ft / 2,504 m 290.62° 313.42° Asphalt 0 ft / 0 m 200 ft / 61 m

Map

Weather


0- 5 10 15 20 25 30 35+ Temperature / ° C

Clouds and Precipitation
Forecast for 2017-12-16 12:00 UTC. Updated 2 hours ago

Ground ~20,000 ft ~40,000 ft Winds

METAR

SBBH 161200Z 10004KT 9999 BKN040 23/18 Q1019

TAF

Not found

Frequencies

Recorded 127.45 MHz BELO HORIZONTE ATIS
Ground 121.60 MHz GND
Approach 120.20 MHz BELO HORIZONTE APP
Approach 129.40 MHz BELO HORIZONTE APP
Clearance 121.10 MHz BELO HORIZONTE TRAFF
Tower 118.00 MHz BELO HORIZONTE TWR
Approach 129.10 MHz BELO HORIZONTE APP
Approach 119.65 MHz BELO HORIZONTE APP
Warning: Do not use this data for real-world aviation or navigation. No guarantee of current accuracy is given.